Time;durP1;ratioP1;P1;durP2;ratioP2;P2;SDS_P1;SDS_P2;PMS_P1;PMS_P2;Temp;Humidity;BMP_temperature;BMP_pressure;BME280_temperature;BME280_humidity;BME280_pressure;Samples;Min_cycle;Max_cycle;Signal;HPM_P1;HPM_P2
2022/06/25 00:01:40;;;;;;;9.43;4.72;;;;;;;19.74;100.00;100715.38;5034070;28;20021;-74
2022/06/25 00:05:27;;;;;;;6.90;4.72;;;;;;;19.72;100.00;100709.19;5035036;28;20041;-74
2022/06/25 00:06:51;;;;;;;8.55;4.75;;;;;;;19.72;100.00;100706.50;5027220;28;20099;-74
2022/06/25 00:09:17;;;;;;;7.72;4.82;;;;;;;19.72;100.00;100711.84;5031327;28;21239;-74
2022/06/25 00:14:26;;;;;;;6.45;4.22;;;;;;;19.70;100.00;100705.69;5034643;28;20091;-73
2022/06/25 00:16:51;;;;;;;5.88;4.13;;;;;;;19.67;100.00;100703.97;5034475;28;20030;-74
2022/06/25 00:19:17;;;;;;;7.30;5.00;;;;;;;19.66;100.00;100701.34;5032857;28;20436;-75
2022/06/25 00:21:42;;;;;;;6.32;4.20;;;;;;;19.62;100.00;100711.19;5035289;28;20052;-73
2022/06/25 00:24:07;;;;;;;4.65;4.13;;;;;;;19.62;100.00;100721.00;5034958;28;20032;-74
2022/06/25 00:26:33;;;;;;;6.93;4.22;;;;;;;19.62;100.00;100721.00;5033308;28;20080;-73
2022/06/25 00:28:58;;;;;;;9.52;4.47;;;;;;;19.58;100.00;100720.19;5033374;28;20049;-73
2022/06/25 00:31:23;;;;;;;10.52;4.28;;;;;;;19.57;100.00;100722.91;5034432;28;20374;-74
2022/06/25 00:33:49;;;;;;;5.97;4.22;;;;;;;19.51;100.00;100722.13;5032365;28;20029;-74
2022/06/25 00:36:14;;;;;;;5.85;4.20;;;;;;;19.53;100.00;100722.97;5032934;28;20024;-74
2022/06/25 00:38:40;;;;;;;7.53;4.53;;;;;;;19.53;100.00;100714.97;5032165;28;20062;-73
2022/06/25 00:41:05;;;;;;;6.93;4.38;;;;;;;19.46;100.00;100715.13;5034816;28;20056;-73
2022/06/25 00:43:31;;;;;;;7.05;3.95;;;;;;;19.49;100.00;100721.28;5034037;28;20032;-73
2022/06/25 00:45:57;;;;;;;5.60;3.72;;;;;;;19.46;100.00;100716.00;5033252;28;20026;-74
2022/06/25 00:48:22;;;;;;;10.73;4.20;;;;;;;19.51;100.00;100708.78;5031934;28;20037;-74
2022/06/25 00:50:48;;;;;;;7.03;4.45;;;;;;;19.51;100.00;100708.78;5034771;28;20032;-75
2022/06/25 00:53:17;;;;;;;5.75;4.45;;;;;;;19.50;100.00;100707.00;5033141;28;20073;-75
2022/06/25 00:55:45;;;;;;;7.07;3.88;;;;;;;19.50;100.00;100712.34;5033027;28;20037;-74
2022/06/25 00:58:13;;;;;;;7.57;4.40;;;;;;;19.45;100.00;100714.28;5033214;28;20033;-74
2022/06/25 01:00:39;;;;;;;10.05;5.53;;;;;;;19.42;100.00;100718.78;5028605;28;20386;-74
2022/06/25 01:03:04;;;;;;;7.57;5.15;;;;;;;19.38;100.00;100728.63;5033748;28;20033;-74
2022/06/25 01:05:30;;;;;;;7.32;5.15;;;;;;;19.36;100.00;100722.47;5033466;28;20033;-74
2022/06/25 01:07:55;;;;;;;6.35;5.40;;;;;;;19.32;100.00;100736.78;5034404;28;20021;-73
2022/06/25 01:10:20;;;;;;;9.70;5.75;;;;;;;19.30;100.00;100736.84;5034120;28;20030;-74
2022/06/25 01:12:46;;;;;;;9.07;5.90;;;;;;;19.29;100.00;100735.06;5030195;28;20022;-74
2022/06/25 01:15:17;;;;;;;9.57;5.22;;;;;;;19.25;100.00;100740.47;5030303;28;20021;-73
2022/06/25 01:17:50;;;;;;;5.80;4.93;;;;;;;19.13;100.00;100742.50;5029933;28;20090;-74
2022/06/25 01:20:18;;;;;;;9.00;5.75;;;;;;;19.14;100.00;100736.28;5032065;28;20412;-74
2022/06/25 01:22:43;;;;;;;9.95;5.65;;;;;;;19.16;100.00;100744.22;5032698;28;20477;-74
2022/06/25 01:25:10;;;;;;;11.48;5.45;;;;;;;19.19;100.00;100750.41;5034251;28;20021;-74
2022/06/25 01:27:36;;;;;;;9.65;5.30;;;;;;;19.14;100.00;100751.38;5033941;28;20034;-74
2022/06/25 01:30:02;;;;;;;9.00;5.05;;;;;;;19.14;100.00;100756.72;5033131;28;20347;-74
2022/06/25 01:32:28;;;;;;;7.00;4.90;;;;;;;19.11;100.00;100757.66;5034038;28;20049;-74
2022/06/25 01:34:53;;;;;;;11.18;5.43;;;;;;;19.06;100.00;100764.00;5034441;28;20064;-74
2022/06/25 01:37:21;;;;;;;8.88;5.57;;;;;;;19.06;100.00;100766.66;5034422;28;20104;-74
2022/06/25 01:39:46;;;;;;;8.18;5.78;;;;;;;19.06;100.00;100758.66;5033093;28;20029;-74
2022/06/25 01:42:58;;;;;;;9.95;5.50;;;;;;;19.07;100.00;100763.94;5033840;28;20116;-74
2022/06/25 01:44:57;;;;;;;10.38;5.65;;;;;;;19.07;100.00;100768.41;5034097;28;20041;-73
2022/06/25 01:47:22;;;;;;;7.80;5.63;;;;;;;18.99;100.00;100774.78;5033999;28;20068;-74
2022/06/25 01:49:48;;;;;;;11.15;5.40;;;;;;;18.97;100.00;100771.25;5033245;28;20104;-74
2022/06/25 01:52:13;;;;;;;11.65;5.18;;;;;;;18.97;100.00;100771.25;5033921;28;20046;-74
2022/06/25 01:54:39;;;;;;;13.27;5.97;;;;;;;18.99;100.00;100773.91;5034021;28;20029;-74
2022/06/25 01:57:04;;;;;;;9.65;5.28;;;;;;;18.96;100.00;100769.50;5032986;28;20040;-74
2022/06/25 01:59:30;;;;;;;10.10;5.32;;;;;;;18.96;100.00;100777.50;5031332;28;20040;-74
2022/06/25 02:01:55;;;;;;;12.15;6.25;;;;;;;18.94;100.00;100781.13;5023483;28;20026;-74
2022/06/25 02:04:20;;;;;;;16.95;6.38;;;;;;;18.91;100.00;100781.16;5031463;28;20040;-74
2022/06/25 02:06:46;;;;;;;16.65;6.13;;;;;;;18.91;100.00;100786.50;5033547;28;20030;-73
2022/06/25 02:09:11;;;;;;;11.23;6.25;;;;;;;18.88;100.00;100795.44;5033594;28;20037;-74
2022/06/25 02:11:36;;;;;;;14.75;6.65;;;;;;;18.86;100.00;100790.09;5032659;28;20013;-75
2022/06/25 02:14:02;;;;;;;14.77;6.20;;;;;;;18.86;100.00;100795.44;5032596;28;20501;-74
2022/06/25 02:16:27;;;;;;;13.77;6.35;;;;;;;18.84;100.00;100802.59;5033154;28;20537;-74
2022/06/25 02:18:53;;;;;;;10.55;6.18;;;;;;;18.80;100.00;100798.22;5032568;28;20496;-74
2022/06/25 02:21:19;;;;;;;12.00;6.32;;;;;;;18.73;100.00;100799.22;5032953;28;20037;-74
2022/06/25 02:23:44;;;;;;;14.27;6.05;;;;;;;18.70;100.00;100799.28;5032757;28;20105;-74
2022/06/25 02:26:09;;;;;;;12.77;5.70;;;;;;;18.73;100.00;100798.34;5031453;28;20100;-75
2022/06/25 02:28:35;;;;;;;11.88;6.07;;;;;;;18.73;100.00;100796.56;5031206;28;20025;-74
2022/06/25 02:31:00;;;;;;;21.02;6.22;;;;;;;18.65;100.00;100801.16;5032398;28;20034;-74
2022/06/25 02:33:25;;;;;;;15.73;5.80;;;;;;;18.63;100.00;100797.66;5030497;28;20435;-74
2022/06/25 02:35:51;;;;;;;14.05;6.20;;;;;;;18.63;100.00;100802.97;5030599;28;20025;-74
2022/06/25 02:38:16;;;;;;;13.70;5.75;;;;;;;18.63;100.00;100800.31;5032145;28;20044;-75
2022/06/25 02:40:42;;;;;;;11.60;5.25;;;;;;;18.68;100.00;100806.44;5031995;28;20033;-73
2022/06/25 02:43:07;;;;;;;7.15;4.60;;;;;;;18.63;100.00;100802.97;5031686;28;20516;-74
2022/06/25 02:45:33;;;;;;;9.98;4.97;;;;;;;18.62;100.00;100806.53;5032256;28;20037;-72
2022/06/25 02:47:58;;;;;;;9.55;4.70;;;;;;;18.64;100.00;100805.63;5030756;28;20053;-75
2022/06/25 02:50:24;;;;;;;8.80;4.20;;;;;;;18.57;100.00;100805.72;5032865;28;20072;-74
2022/06/25 02:52:50;;;;;;;11.75;4.75;;;;;;;18.58;100.00;100815.50;5031800;28;20095;-73
2022/06/25 02:55:15;;;;;;;12.48;4.80;;;;;;;18.61;100.00;100810.09;5031935;28;20025;-74
2022/06/25 03:00:25;;;;;;;10.63;4.40;;;;;;;18.59;100.00;100819.94;5031732;28;20055;-73
2022/06/25 03:02:50;;;;;;;9.02;3.85;;;;;;;18.59;100.00;100827.94;5032067;28;20112;-74
2022/06/25 03:05:15;;;;;;;9.32;4.28;;;;;;;18.58;100.00;100826.16;5031814;28;20064;-74
2022/06/25 03:07:41;;;;;;;7.82;4.10;;;;;;;18.60;100.00;100827.91;5032948;28;20092;-74
2022/06/25 03:10:06;;;;;;;7.72;3.75;;;;;;;18.56;100.00;100825.28;5030491;28;20075;-73
2022/06/25 03:12:32;;;;;;;10.63;3.60;;;;;;;18.58;100.00;100826.16;5032450;28;20036;-74
2022/06/25 03:14:57;;;;;;;10.50;3.72;;;;;;;18.58;100.00;100826.16;5032093;28;20021;-74
2022/06/25 03:17:23;;;;;;;10.82;3.72;;;;;;;18.60;100.00;100832.31;5030643;28;20057;-74
2022/06/25 03:19:48;;;;;;;8.38;3.50;;;;;;;18.58;100.00;100828.81;5031147;28;20075;-74
2022/06/25 03:22:14;;;;;;;6.32;3.60;;;;;;;18.60;100.00;100841.22;5031108;28;20136;-74
2022/06/25 03:24:39;;;;;;;8.88;3.30;;;;;;;18.60;100.00;100835.88;5029382;28;20026;-74
2022/06/25 03:27:05;;;;;;;5.07;3.08;;;;;;;18.63;100.00;100834.97;5030639;28;20029;-73
2022/06/25 03:29:30;;;;;;;13.00;3.38;;;;;;;18.65;100.00;100835.78;5026320;28;20029;-74
2022/06/25 03:31:56;;;;;;;9.45;3.25;;;;;;;18.62;100.00;100834.06;5031733;28;20021;-74
2022/06/25 03:34:21;;;;;;;10.35;3.28;;;;;;;18.64;100.00;100836.72;5031488;28;20087;-75
2022/06/25 03:36:47;;;;;;;6.68;3.10;;;;;;;18.65;100.00;100838.47;5031827;28;20495;-74
2022/06/25 03:39:12;;;;;;;6.75;3.30;;;;;;;18.62;100.00;100849.19;5031444;28;20485;-76
2022/06/25 03:41:38;;;;;;;7.63;3.33;;;;;;;18.69;100.00;100838.41;5031001;28;20060;-74
2022/06/25 03:44:10;;;;;;;5.18;3.22;;;;;;;18.75;100.00;100856.06;5030587;28;20369;-74
2022/06/25 03:46:37;;;;;;;10.60;2.97;;;;;;;18.63;100.00;100858.94;5030085;28;20487;-73
2022/06/25 03:49:04;;;;;;;6.90;3.70;;;;;;;18.66;100.00;100856.22;5032003;28;20060;-74
2022/06/25 03:51:30;;;;;;;13.00;3.65;;;;;;;18.68;100.00;100857.09;5029615;28;20025;-74
2022/06/25 03:53:56;;;;;;;6.53;3.42;;;;;;;18.69;100.00;100862.41;5030149;28;20069;-73
2022/06/25 03:56:21;;;;;;;12.27;3.67;;;;;;;18.73;100.00;100870.31;5029789;28;20064;-74
2022/06/25 03:58:47;;;;;;;6.38;3.58;;;;;;;18.75;100.00;100871.19;5032760;28;20021;-74
2022/06/25 04:01:13;;;;;;;8.38;4.20;;;;;;;18.79;100.00;100863.09;5031354;28;20493;-74
2022/06/25 04:03:39;;;;;;;7.10;3.80;;;;;;;18.78;100.00;100866.66;5028013;28;20025;-74
2022/06/25 04:06:05;;;;;;;10.10;4.47;;;;;;;18.81;100.00;100871.94;5034187;28;20030;-75
2022/06/25 04:08:31;;;;;;;10.82;4.20;;;;;;;18.80;100.00;100878.22;5035099;28;20034;-74
2022/06/25 04:10:56;;;;;;;10.90;3.95;;;;;;;18.72;100.00;100872.13;5033268;28;20116;-74
2022/06/25 04:13:22;;;;;;;6.13;3.50;;;;;;;18.66;100.00;100882.88;5034669;28;20461;-74
2022/06/25 04:15:47;;;;;;;6.32;3.40;;;;;;;18.71;100.00;100878.34;5035038;28;20025;-74
2022/06/25 04:18:12;;;;;;;9.32;3.60;;;;;;;18.70;100.00;100876.59;5035132;28;20108;-74
2022/06/25 04:20:38;;;;;;;16.05;3.92;;;;;;;18.67;100.00;100880.19;5035068;28;20029;-74
2022/06/25 04:23:04;;;;;;;6.57;3.45;;;;;;;18.80;100.00;100872.88;5032740;28;20026;-74
2022/06/25 04:25:29;;;;;;;6.47;3.45;;;;;;;18.77;100.00;100880.03;5034012;28;20033;-74
2022/06/25 04:30:38;;;;;;;9.55;3.17;;;;;;;18.73;100.00;100881.84;5032823;28;20546;-74
2022/06/25 04:33:04;;;;;;;10.07;2.97;;;;;;;18.79;100.00;100888.91;5033559;28;20029;-75
2022/06/25 04:35:29;;;;;;;10.75;3.20;;;;;;;18.70;100.00;100884.59;5035291;28;20025;-74
2022/06/25 04:37:54;;;;;;;7.28;2.85;;;;;;;18.70;100.00;100887.25;5027655;28;20014;-74
2022/06/25 04:40:20;;;;;;;5.85;2.92;;;;;;;18.70;100.00;100880.13;5034785;28;20370;-75
2022/06/25 04:42:46;;;;;;;5.07;2.75;;;;;;;18.75;100.00;100884.53;5034764;28;20025;-75
2022/06/25 04:45:12;;;;;;;7.18;2.63;;;;;;;18.74;100.00;100891.63;5033361;28;20037;-74
2022/06/25 04:47:38;;;;;;;5.47;3.15;;;;;;;18.70;100.00;100895.25;5032392;28;20029;-75
2022/06/25 04:50:04;;;;;;;5.78;2.55;;;;;;;18.72;100.00;100901.44;5033279;28;20090;-74
2022/06/25 04:52:29;;;;;;;4.80;2.28;;;;;;;18.68;100.00;100903.28;5033676;28;20179;-74
2022/06/25 04:54:55;;;;;;;7.00;2.63;;;;;;;18.73;100.00;100908.50;5034692;28;20441;-75
2022/06/25 04:57:20;;;;;;;5.70;2.22;;;;;;;18.77;100.00;100912.03;5034710;28;20466;-74
2022/06/25 04:59:45;;;;;;;10.07;3.10;;;;;;;18.67;100.00;100916.63;5034373;28;20461;-74
2022/06/25 05:02:11;;;;;;;4.65;2.50;;;;;;;18.75;100.00;100917.38;5032041;28;20414;-74
2022/06/25 05:04:36;;;;;;;5.97;2.28;;;;;;;18.79;100.00;100919.09;5033230;28;20025;-74
2022/06/25 05:07:01;;;;;;;7.72;2.63;;;;;;;18.87;100.00;100924.31;5034178;28;20393;-73
2022/06/25 05:09:27;;;;;;;6.93;2.40;;;;;;;18.82;100.00;100921.69;5034127;28;20026;-74
2022/06/25 05:11:52;;;;;;;7.20;2.65;;;;;;;18.84;100.00;100916.34;5034250;28;20060;-74
2022/06/25 05:14:18;;;;;;;4.57;2.30;;;;;;;18.87;100.00;100919.84;5031680;28;20433;-74
2022/06/25 05:16:45;;;;;;;5.32;2.17;;;;;;;18.89;100.00;100918.97;5033432;28;20025;-74
2022/06/25 05:19:11;;;;;;;5.00;2.80;;;;;;;19.01;100.00;100908.09;5033882;28;20109;-74
2022/06/25 05:21:36;;;;;;;5.00;2.30;;;;;;;19.01;100.00;100926.78;5032749;28;20108;-74
2022/06/25 05:24:01;;;;;;;5.25;2.33;;;;;;;19.10;100.00;100921.28;5032292;28;20476;-74
2022/06/25 05:26:27;;;;;;;8.73;2.20;;;;;;;19.21;100.00;100927.28;5029314;28;20041;-74
2022/06/25 05:28:53;;;;;;;6.95;2.22;;;;;;;19.17;100.00;100930.06;5032931;28;20025;-75
2022/06/25 05:31:18;;;;;;;5.90;2.35;;;;;;;19.21;100.00;100940.63;5033310;28;20031;-74
2022/06/25 05:33:43;;;;;;;10.40;2.67;;;;;;;19.33;100.00;100943.97;5030855;28;20388;-74
2022/06/25 05:36:08;;;;;;;9.43;2.50;;;;;;;19.31;100.00;100940.47;5033766;28;20048;-75
2022/06/25 05:38:34;;;;;;;8.07;2.40;;;;;;;19.33;100.00;100942.22;5030518;28;20048;-74
2022/06/25 05:40:59;;;;;;;6.80;2.45;;;;;;;19.21;100.00;100935.28;5033694;28;20033;-74
2022/06/25 05:43:24;;;;;;;6.30;2.45;;;;;;;19.30;100.00;100949.38;5034193;28;20013;-74
2022/06/25 05:45:50;;;;;;;4.20;2.45;;;;;;;19.31;100.00;100952.00;5032262;28;20056;-75
2022/06/25 05:48:15;;;;;;;3.63;2.03;;;;;;;19.09;100.00;100951.53;5031774;28;20124;-75
2022/06/25 05:50:41;;;;;;;8.13;2.78;;;;;;;19.07;100.00;100958.66;5032729;28;20120;-74
2022/06/25 05:53:06;;;;;;;7.72;2.88;;;;;;;18.99;100.00;100965.91;5033376;28;20049;-74
2022/06/25 05:55:31;;;;;;;8.60;2.85;;;;;;;19.04;100.00;100953.38;5029627;28;20029;-74
2022/06/25 05:57:58;;;;;;;8.48;2.03;;;;;;;19.18;100.00;100962.03;5033002;28;20048;-74
2022/06/25 06:00:26;;;;;;;3.45;2.42;;;;;;;19.28;100.00;100961.88;5029215;28;20049;-73
2022/06/25 06:02:51;;;;;;;8.20;2.60;;;;;;;19.31;100.00;100967.16;5029691;28;20436;-75
2022/06/25 06:05:16;;;;;;;5.78;2.63;;;;;;;19.25;100.00;100961.91;5032227;28;20056;-75
2022/06/25 06:07:42;;;;;;;4.45;2.15;;;;;;;19.32;100.00;100958.25;5033192;28;20047;-75
2022/06/25 06:10:07;;;;;;;6.00;2.10;;;;;;;19.47;100.00;100957.09;5033645;28;20412;-74
2022/06/25 06:12:33;;;;;;;7.25;2.22;;;;;;;19.37;100.00;100972.34;5033249;28;20116;-76
2022/06/25 06:14:58;;;;;;;10.20;2.10;;;;;;;19.48;100.00;100970.41;5030468;28;20036;-75
2022/06/25 06:17:23;;;;;;;8.32;2.35;;;;;;;19.64;100.00;100980.78;5033083;28;20029;-74
2022/06/25 06:19:49;;;;;;;4.72;2.15;;;;;;;19.67;100.00;100972.72;5031548;28;20469;-76
2022/06/25 06:22:14;;;;;;;8.18;2.10;;;;;;;19.65;100.00;100977.19;5033067;28;20065;-73
2022/06/25 06:24:40;;;;;;;6.00;2.33;;;;;;;19.77;100.00;100979.63;5032488;28;20469;-74
2022/06/25 06:27:05;;;;;;;7.10;1.83;;;;;;;19.74;100.00;100985.03;5032569;28;20029;-74
2022/06/25 06:29:31;;;;;;;10.43;2.28;;;;;;;19.77;100.00;100992.13;5032048;28;20029;-75
2022/06/25 06:31:56;;;;;;;8.95;2.63;;;;;;;19.74;100.00;100992.16;5032483;28;20408;-74
2022/06/25 06:34:22;;;;;;;6.65;2.30;;;;;;;19.79;100.00;100996.53;5032100;28;20029;-75
2022/06/25 06:36:47;;;;;;;5.78;2.25;;;;;;;19.66;100.00;100995.00;5032842;28;20364;-75
2022/06/25 06:39:13;;;;;;;5.57;2.15;;;;;;;19.71;100.00;100999.31;5030678;28;20512;-75
2022/06/25 06:41:38;;;;;;;4.38;2.33;;;;;;;19.62;100.00;101004.84;5033151;28;20358;-74
2022/06/25 06:44:04;;;;;;;5.85;2.55;;;;;;;19.49;100.00;101004.19;5031769;28;20045;-73
2022/06/25 06:46:29;;;;;;;5.18;2.10;;;;;;;19.45;100.00;101007.81;5032529;28;20393;-72
2022/06/25 06:48:55;;;;;;;9.95;2.67;;;;;;;19.36;100.00;101002.66;5032477;28;20025;-73
2022/06/25 06:51:20;;;;;;;3.42;2.13;;;;;;;19.52;100.00;101013.91;5031825;28;20037;-75
2022/06/25 06:53:45;;;;;;;5.60;2.10;;;;;;;19.60;100.00;101006.66;5032479;28;20049;-74
2022/06/25 06:56:11;;;;;;;4.95;2.22;;;;;;;19.56;100.00;101015.66;5031772;28;20109;-75
2022/06/25 06:58:36;;;;;;;4.32;2.60;;;;;;;19.46;100.00;101014.91;5031781;28;20437;-76
2022/06/25 07:01:03;;;;;;;4.43;1.70;;;;;;;19.46;100.00;101014.03;5029750;28;20033;-75
2022/06/25 07:03:29;;;;;;;5.85;2.03;;;;;;;19.49;100.00;101029.97;5031324;28;20068;-74
2022/06/25 07:05:54;;;;;;;5.03;2.13;;;;;;;19.33;100.00;101026.69;5032817;28;20033;-74
2022/06/25 07:08:20;;;;;;;4.20;2.05;;;;;;;19.22;100.00;101026.88;5025977;28;20022;-74
2022/06/25 07:10:45;;;;;;;5.10;2.20;;;;;;;19.44;100.00;101027.41;5025005;28;20029;-75
2022/06/25 07:13:11;;;;;;;5.05;2.30;;;;;;;19.39;100.00;101023.94;5026082;28;20044;-74
2022/06/25 07:15:36;;;;;;;2.65;1.92;;;;;;;19.43;100.00;101028.31;5019635;28;20052;-74
2022/06/25 07:18:01;;;;;;;3.70;2.03;;;;;;;19.28;100.00;101025.91;5019809;28;20022;-75
2022/06/25 07:20:27;;;;;;;9.77;2.38;;;;;;;19.15;100.00;101030.56;5024791;28;20029;-73
2022/06/25 07:22:52;;;;;;;3.72;1.98;;;;;;;19.25;100.00;101031.28;5022772;28;20120;-74
2022/06/25 07:25:17;;;;;;;7.03;2.15;;;;;;;19.27;100.00;101025.00;5024937;28;20025;-74
2022/06/25 07:27:44;;;;;;;5.93;2.08;;;;;;;19.31;100.00;101040.06;5024055;28;20069;-75
2022/06/25 07:30:11;;;;;;;4.38;1.95;;;;;;;19.33;100.00;101040.03;5026165;28;20040;-73
2022/06/25 07:32:36;;;;;;;5.20;2.20;;;;;;;19.27;100.00;101050.81;5024699;28;20025;-75
2022/06/25 07:35:02;;;;;;;4.13;2.33;;;;;;;19.24;100.00;101046.41;5026889;28;20445;-75
2022/06/25 07:37:28;;;;;;;5.32;2.50;;;;;;;19.13;100.00;101046.59;5021509;28;20022;-74
2022/06/25 07:39:53;;;;;;;4.28;2.65;;;;;;;19.14;100.00;101053.69;5027328;28;20029;-74
2022/06/25 07:42:19;;;;;;;3.88;2.17;;;;;;;19.10;100.00;101054.66;5032124;28;20110;-74
2022/06/25 07:44:44;;;;;;;4.40;2.25;;;;;;;19.10;100.00;101054.66;5033860;28;20021;-74
2022/06/25 07:47:10;;;;;;;3.92;2.40;;;;;;;19.06;100.00;101058.25;5033383;28;20022;-74
2022/06/25 07:51:56;;;;;;;3.67;2.30;;;;;;;19.13;100.00;101059.91;5032842;28;20025;-75
2022/06/25 07:52:20;;;;;;;9.98;2.63;;;;;;;19.25;100.00;101060.63;5032677;28;20443;-76
2022/06/25 07:54:45;;;;;;;5.95;2.50;;;;;;;19.19;100.00;101059.84;5034788;28;20029;-76
2022/06/25 07:57:11;;;;;;;4.97;2.28;;;;;;;19.31;100.00;101052.53;5035537;28;20040;-76
2022/06/25 07:59:36;;;;;;;5.05;2.08;;;;;;;19.39;100.00;101055.94;5033839;28;20052;-75
2022/06/25 08:02:01;;;;;;;5.03;2.20;;;;;;;19.35;100.00;101067.59;5035039;28;20025;-76
2022/06/25 08:04:27;;;;;;;6.03;1.83;;;;;;;19.09;100.00;101063.53;5035951;28;20076;-76
2022/06/25 08:06:54;;;;;;;6.25;2.05;;;;;;;19.06;100.00;101063.59;5035165;28;20032;-77
2022/06/25 08:09:19;;;;;;;6.47;2.03;;;;;;;19.02;100.00;101067.22;5035627;28;20021;-76
2022/06/25 08:11:45;;;;;;;7.10;2.10;;;;;;;19.02;100.00;101068.09;5034471;28;20026;-76
2022/06/25 08:14:10;;;;;;;5.45;1.85;;;;;;;18.95;100.00;101066.44;5035018;28;20563;-76
2022/06/25 08:16:37;;;;;;;7.47;2.10;;;;;;;18.70;100.00;101065.84;5034187;28;20021;-76
2022/06/25 08:19:03;;;;;;;5.38;1.70;;;;;;;18.76;100.00;101071.09;5033332;28;20175;-76
2022/06/25 08:21:28;;;;;;;5.80;1.80;;;;;;;18.83;100.00;101078.09;5032847;28;20116;-76
2022/06/25 08:23:54;;;;;;;6.65;1.73;;;;;;;18.69;100.00;101074.72;5034542;28;20021;-77
2022/06/25 08:26:20;;;;;;;6.38;1.75;;;;;;;18.67;100.00;101071.22;5034890;28;20028;-76
2022/06/25 08:28:45;;;;;;;6.22;2.33;;;;;;;18.66;100.00;101077.44;5034924;28;20085;-79
2022/06/25 08:31:11;;;;;;;6.70;1.73;;;;;;;18.77;100.00;101078.19;5033005;28;20100;-77
2022/06/25 08:33:36;;;;;;;6.82;1.85;;;;;;;18.65;100.00;101081.00;5031668;28;20072;-75
2022/06/25 08:36:02;;;;;;;5.38;1.73;;;;;;;18.71;100.00;101083.59;5031359;28;20029;-76
2022/06/25 08:38:28;;;;;;;5.93;1.77;;;;;;;18.69;100.00;101085.41;5034346;28;20029;-76
2022/06/25 08:40:58;;;;;;;4.95;1.90;;;;;;;18.56;100.00;101091.78;5028158;28;20025;-77
2022/06/25 08:43:24;;;;;;;8.63;1.88;;;;;;;18.57;100.00;101088.22;5024848;28;20439;-75
2022/06/25 08:45:49;;;;;;;7.82;2.58;;;;;;;18.47;100.00;101096.34;5021307;28;20045;-75
2022/06/25 08:48:29;;;;;;;7.35;1.80;;;;;;;18.29;100.00;101096.56;5022095;28;20080;-76
2022/06/25 08:50:55;;;;;;;6.88;1.85;;;;;;;18.14;100.00;101108.28;5032398;28;20036;-76
2022/06/25 08:53:21;;;;;;;11.38;1.98;;;;;;;18.20;100.00;101108.19;5032150;28;20394;-77
2022/06/25 08:55:47;;;;;;;7.13;2.05;;;;;;;18.08;100.00;101109.22;5033615;28;20033;-76
2022/06/25 08:58:13;;;;;;;13.75;2.50;;;;;;;18.09;100.00;101113.63;5032941;28;20026;-77
2022/06/25 09:00:41;;;;;;;10.43;2.30;;;;;;;18.13;100.00;101111.81;5033765;28;20116;-77
2022/06/25 09:03:08;;;;;;;7.47;2.70;;;;;;;18.12;100.00;101110.97;5033132;28;20124;-76
2022/06/25 09:05:42;;;;;;;8.75;2.85;;;;;;;18.11;100.00;101109.19;5034415;28;20025;-77
2022/06/25 09:08:12;;;;;;;9.40;2.20;;;;;;;18.16;100.00;101110.03;5030196;28;20452;-77
2022/06/25 09:10:39;;;;;;;11.98;2.25;;;;;;;18.19;100.00;101107.31;5031343;28;20018;-77
2022/06/25 09:13:08;;;;;;;11.05;2.70;;;;;;;18.17;100.00;101114.44;5024051;28;20080;-77
2022/06/25 09:15:35;;;;;;;8.27;2.35;;;;;;;18.17;100.00;101109.09;5031241;28;20032;-75
2022/06/25 09:18:15;;;;;;;11.90;2.63;;;;;;;18.24;100.00;101115.25;5031767;28;20511;-76
2022/06/25 09:20:59;;;;;;;9.95;2.10;;;;;;;18.27;100.00;101120.56;5033486;28;20052;-76
2022/06/25 09:23:29;;;;;;;12.73;2.90;;;;;;;18.32;100.00;101118.72;5025059;28;20029;-76
2022/06/25 09:26:04;;;;;;;8.77;2.53;;;;;;;18.31;100.00;101118.72;5028082;28;20105;-76
2022/06/25 09:28:31;;;;;;;14.00;2.70;;;;;;;18.34;100.00;101116.06;5025164;28;20033;-75
2022/06/25 09:30:57;;;;;;;9.85;2.72;;;;;;;18.42;100.00;101116.84;5028836;28;20451;-76
2022/06/25 09:33:22;;;;;;;8.07;2.10;;;;;;;18.45;100.00;101113.22;5030985;28;20109;-77
2022/06/25 09:35:51;;;;;;;8.25;2.05;;;;;;;18.35;100.00;101123.13;5029996;28;20021;-77
2022/06/25 09:38:16;;;;;;;6.55;2.30;;;;;;;18.33;100.00;101114.28;5032399;28;20071;-76
2022/06/25 09:40:59;;;;;;;6.20;1.30;;;;;;;18.22;100.00;101124.16;5028747;28;20544;-76
2022/06/25 09:43:28;;;;;;;7.00;1.98;;;;;;;18.04;100.00;101123.44;5025458;28;20036;-76
2022/06/25 09:45:55;;;;;;;7.63;1.90;;;;;;;18.13;100.00;101134.00;5024578;28;20021;-76
2022/06/25 09:48:21;;;;;;;6.95;1.70;;;;;;;18.13;100.00;101139.34;5022539;28;20026;-77
2022/06/25 09:51:13;;;;;;;5.70;1.95;;;;;;;18.01;100.00;101140.34;5032728;28;20566;-76
2022/06/25 09:53:48;;;;;;;5.15;1.50;;;;;;;18.08;100.00;101135.84;5025679;28;20050;-77
2022/06/25 09:56:16;;;;;;;6.57;1.70;;;;;;;18.17;100.00;101141.06;5023201;28;20397;-75
2022/06/25 09:58:43;;;;;;;5.72;1.75;;;;;;;18.22;100.00;101145.47;5028589;28;20041;-75
2022/06/25 10:01:09;;;;;;;6.22;1.85;;;;;;;18.32;100.00;101145.34;5024270;28;20036;-77
2022/06/25 10:03:36;;;;;;;5.82;2.17;;;;;;;18.35;100.00;101149.75;5030086;28;20033;-77
2022/06/25 10:06:02;;;;;;;11.27;2.28;;;;;;;18.47;100.00;101149.63;5027618;28;20033;-75
2022/06/25 10:08:30;;;;;;;10.75;2.28;;;;;;;18.29;100.00;101144.53;5028821;28;20560;-76
2022/06/25 10:10:56;;;;;;;8.85;1.95;;;;;;;18.39;100.00;101151.50;5030525;28;20033;-77
2022/06/25 10:13:23;;;;;;;11.95;2.40;;;;;;;18.50;100.00;101148.72;5033550;28;20037;-75
2022/06/25 10:15:49;;;;;;;5.05;2.00;;;;;;;18.42;100.00;101146.16;5032864;28;20038;-78
2022/06/25 10:18:15;;;;;;;11.60;2.80;;;;;;;18.53;100.00;101141.56;5033048;28;20497;-77
2022/06/25 10:20:42;;;;;;;5.32;1.73;;;;;;;18.79;100.00;101139.50;5032025;28;20060;-75
2022/06/25 10:23:10;;;;;;;8.90;2.28;;;;;;;18.91;100.00;101146.47;5031397;28;20029;-73
2022/06/25 10:25:36;;;;;;;8.25;2.17;;;;;;;19.05;100.00;101147.19;5022159;28;20056;-75
2022/06/25 10:28:14;;;;;;;4.63;2.33;;;;;;;19.31;100.00;101153.94;5020640;28;20180;-78
2022/06/25 10:30:51;;;;;;;4.82;2.30;;;;;;;19.45;100.00;101149.28;5023089;28;20084;-74
2022/06/25 10:33:25;;;;;;;8.35;2.45;;;;;;;19.68;100.00;101145.34;5031196;28;20029;-76
2022/06/25 10:35:52;;;;;;;9.93;2.60;;;;;;;19.68;100.00;101148.00;5029395;28;20469;-75
2022/06/25 10:38:18;;;;;;;12.05;3.60;;;;;;;19.92;100.00;101151.22;5021790;28;20014;-74
2022/06/25 10:43:58;;;;;;;8.40;3.35;;;;;;;19.84;100.00;101154.88;5028691;28;20527;-76
2022/06/25 10:46:36;;;;;;;11.45;2.83;;;;;;;20.00;100.00;101149.28;5025381;28;20025;-76
2022/06/25 10:49:11;;;;;;;8.93;3.08;;;;;;;20.12;100.00;101148.19;5025694;28;20033;-76
2022/06/25 10:51:42;;;;;;;12.70;2.90;;;;;;;20.54;100.00;101151.81;5030584;28;20030;-77
2022/06/25 10:54:29;;;;;;;9.13;2.50;;;;;;;20.44;100.00;101144.88;5035878;28;20048;-75
2022/06/25 10:56:58;;;;;;;10.45;2.78;;;;;;;20.32;100.00;101148.69;5034091;28;20053;-76
2022/06/25 10:59:35;;;;;;;5.40;2.50;;;;;;;20.29;100.00;101153.22;5030751;28;20021;-76
2022/06/25 11:02:06;;;;;;;8.57;2.90;;;;;;;20.37;100.00;101160.19;5020717;28;20033;-74
2022/06/25 11:04:33;;;;;;;5.72;3.00;;;;;;;20.43;100.00;101148.50;5030821;28;20067;-74
2022/06/25 11:07:09;;;;;;;8.77;2.85;;;;;;;20.58;100.00;101141.06;5030328;28;20104;-74
2022/06/25 11:09:35;;;;;;;9.82;3.65;;;;;;;20.65;100.00;101148.94;5027767;28;20029;-72
2022/06/25 11:12:00;;;;;;;7.68;2.92;;;;;;;20.89;100.00;101158.28;5032577;28;20032;-75
2022/06/25 11:14:26;;;;;;;8.32;3.35;;;;;;;20.51;100.00;101151.91;5031181;28;20112;-75
2022/06/25 11:16:53;;;;;;;9.00;3.22;;;;;;;20.68;100.00;101156.00;5030873;28;20465;-76
2022/06/25 11:19:20;;;;;;;7.38;2.97;;;;;;;20.91;100.00;101157.38;5028613;28;20063;-75
2022/06/25 11:21:47;;;;;;;5.45;2.97;;;;;;;21.09;100.00;101154.28;5035985;28;20021;-75
2022/06/25 11:24:14;;;;;;;7.35;2.78;;;;;;;21.15;100.00;101148.78;5028629;28;20036;-74